createdAt,value
2022-10-30T00:00:30.402Z,96.55
2022-10-30T00:01:30.468Z,96.76
2022-10-30T00:02:30.423Z,96.45
2022-10-30T00:03:30.376Z,96.45
2022-10-30T00:04:30.342Z,96.35
2022-10-30T00:05:30.332Z,96.41
2022-10-30T00:06:30.321Z,96.76
2022-10-30T00:07:30.333Z,96.66
2022-10-30T00:08:30.296Z,96.35
2022-10-30T00:09:30.287Z,96.51
2022-10-30T00:10:30.273Z,96.45
2022-10-30T00:11:30.266Z,96.35
2022-10-30T00:12:30.326Z,96.45
2022-10-30T00:13:30.243Z,96.55
2022-10-30T00:14:30.228Z,96.55
2022-10-30T00:15:30.217Z,96.19
2022-10-30T00:16:30.233Z,96.70
2022-10-30T00:17:30.201Z,96.76
2022-10-30T00:18:30.183Z,97.11
2022-10-30T00:19:30.173Z,97.72
2022-10-30T00:20:30.164Z,97.57
2022-10-30T00:21:30.149Z,97.57
2022-10-30T00:22:30.166Z,97.67
2022-10-30T00:23:30.142Z,96.86
2022-10-30T00:24:30.140Z,96.86
2022-10-30T00:25:30.104Z,97.00
2022-10-30T00:26:30.092Z,97.00
2022-10-30T00:27:30.093Z,97.62
2022-10-30T00:28:30.088Z,97.41
2022-10-30T00:29:30.083Z,97.52
2022-10-30T00:30:30.050Z,97.21
2022-10-30T00:31:30.037Z,97.11
2022-10-30T00:32:30.047Z,97.21
2022-10-30T00:33:30.016Z,97.36
2022-10-30T00:34:30.001Z,97.62
2022-10-30T00:35:29.992Z,97.62
2022-10-30T00:36:30.000Z,97.46
2022-10-30T00:37:29.968Z,97.25
2022-10-30T00:38:29.979Z,97.21
2022-10-30T00:39:29.947Z,97.21
2022-10-30T00:40:29.934Z,97.31
2022-10-30T00:41:29.949Z,97.41
2022-10-30T00:42:29.940Z,97.21
2022-10-30T00:43:29.904Z,97.21
2022-10-30T00:44:29.907Z,97.16
2022-10-30T00:45:29.880Z,97.21
2022-10-30T00:46:29.890Z,97.31
2022-10-30T00:47:29.861Z,97.27
2022-10-30T00:48:29.842Z,97.21
2022-10-30T00:49:29.834Z,97.41
2022-10-30T00:50:29.834Z,97.21
2022-10-30T00:51:29.836Z,97.21
2022-10-30T00:52:29.802Z,97.21
2022-10-30T00:53:29.818Z,97.56
2022-10-30T00:54:29.775Z,97.36
2022-10-30T00:55:29.766Z,97.46
2022-10-30T00:56:29.754Z,97.25
2022-10-30T00:57:29.749Z,97.56
2022-10-30T00:58:29.751Z,97.36
2022-10-30T00:59:29.719Z,97.25
2022-10-30T01:00:29.726Z,97.25
2022-10-30T01:01:29.816Z,97.25
2022-10-30T01:02:29.804Z,97.36
2022-10-30T01:03:29.703Z,97.66
2022-10-30T01:04:30.398Z,97.66
2022-10-30T01:05:29.680Z,98.07
2022-10-30T01:06:29.663Z,97.97
2022-10-30T01:07:29.631Z,97.97
2022-10-30T01:08:29.654Z,97.97
2022-10-30T01:09:29.608Z,97.77
2022-10-30T01:10:29.618Z,97.77
2022-10-30T01:11:29.587Z,97.87
2022-10-30T01:12:29.612Z,97.77
2022-10-30T01:13:29.564Z,97.97
2022-10-30T01:14:29.553Z,98.07
2022-10-30T01:15:29.576Z,97.87
2022-10-30T01:16:29.546Z,97.66
2022-10-30T01:17:29.519Z,97.97
2022-10-30T01:18:29.526Z,97.97
2022-10-30T01:19:29.528Z,97.66
2022-10-30T01:20:29.488Z,97.62
2022-10-30T01:21:29.475Z,97.77
2022-10-30T01:22:29.487Z,97.72
2022-10-30T01:25:49.897Z,97.66
2022-10-30T01:26:49.886Z,97.62
2022-10-30T01:27:49.889Z,97.62
2022-10-30T01:28:49.863Z,97.77
2022-10-30T01:29:49.850Z,97.72
2022-10-30T01:30:49.841Z,97.72
2022-10-30T01:31:49.848Z,97.92
2022-10-30T01:32:49.851Z,97.72
2022-10-30T01:33:49.810Z,97.82
2022-10-30T01:34:49.811Z,98.02
2022-10-30T01:35:49.786Z,97.92
2022-10-30T01:36:49.772Z,97.92
2022-10-30T01:37:49.764Z,97.72
2022-10-30T01:38:49.858Z,97.92
2022-10-30T01:39:49.755Z,97.52
2022-10-30T01:40:49.727Z,98.02
2022-10-30T01:41:49.718Z,97.82
2022-10-30T01:42:49.707Z,97.82
2022-10-30T01:43:49.698Z,98.02
2022-10-30T01:44:49.700Z,98.02
2022-10-30T01:45:49.674Z,97.82
2022-10-30T01:46:49.662Z,97.92
2022-10-30T01:47:49.673Z,97.62
2022-10-30T01:48:49.639Z,98.33
2022-10-30T01:49:49.654Z,97.62
2022-10-30T01:50:49.616Z,98.33
2022-10-30T01:51:49.606Z,97.92
2022-10-30T01:52:49.597Z,97.92
2022-10-30T01:53:49.585Z,98.08
2022-10-30T01:54:49.572Z,97.88
2022-10-30T01:55:49.586Z,97.92
2022-10-30T01:56:49.551Z,97.98
2022-10-30T01:57:49.541Z,98.33
2022-10-30T01:58:49.548Z,98.18
2022-10-30T01:59:49.519Z,97.78
2022-10-30T02:00:49.510Z,98.02
2022-10-30T02:01:49.700Z,97.92
2022-10-30T02:02:49.610Z,97.92
2022-10-30T02:03:49.534Z,97.92
2022-10-30T02:04:49.478Z,97.72
2022-10-30T02:05:49.456Z,97.72
2022-10-30T02:06:49.438Z,97.62
2022-10-30T02:07:49.524Z,97.72
2022-10-30T02:08:49.425Z,97.62
2022-10-30T02:09:49.413Z,97.72
2022-10-30T02:10:49.395Z,97.62
2022-10-30T02:11:49.407Z,97.72
2022-10-30T02:12:49.382Z,97.62
2022-10-30T02:13:49.369Z,97.52
2022-10-30T02:14:49.362Z,97.52
2022-10-30T02:15:49.343Z,97.72
2022-10-30T02:16:49.331Z,97.72
2022-10-30T02:17:49.653Z,97.52
2022-10-30T02:18:49.310Z,97.77
2022-10-30T02:19:49.646Z,97.62
2022-10-30T02:20:49.288Z,97.72
2022-10-30T02:21:49.277Z,97.92
2022-10-30T02:22:52.975Z,98.02
2022-10-30T02:23:50.252Z,97.62
2022-10-30T02:24:49.262Z,97.92
2022-10-30T02:25:49.232Z,97.52
2022-10-30T02:26:49.244Z,98.02
2022-10-30T02:27:49.210Z,98.43
2022-10-30T02:28:49.199Z,97.92
2022-10-30T02:29:49.189Z,98.33
2022-10-30T02:30:49.238Z,97.82
2022-10-30T02:31:49.170Z,97.92
2022-10-30T02:32:49.152Z,98.33
2022-10-30T02:33:49.147Z,98.33
2022-10-30T02:34:49.132Z,97.98
2022-10-30T02:35:49.189Z,97.41
2022-10-30T02:36:49.108Z,97.72
2022-10-30T02:37:49.104Z,97.41
2022-10-30T02:38:49.086Z,97.52
2022-10-30T02:39:49.076Z,97.62
2022-10-30T02:40:49.083Z,98.02
2022-10-30T02:41:49.087Z,98.02
2022-10-30T02:42:49.042Z,98.02
2022-10-30T02:43:49.038Z,97.92
2022-10-30T02:44:49.037Z,97.92
2022-10-30T02:45:49.030Z,98.02
2022-10-30T02:46:49.028Z,97.72
2022-10-30T02:47:49.109Z,98.02
2022-10-30T02:48:48.973Z,97.72
2022-10-30T02:49:48.969Z,97.92
2022-10-30T02:50:48.970Z,97.62
2022-10-30T02:51:48.976Z,97.72
2022-10-30T02:52:48.929Z,97.72
2022-10-30T02:53:48.920Z,97.92
2022-10-30T02:54:48.908Z,97.72
2022-10-30T02:55:48.930Z,97.92
2022-10-30T02:56:48.903Z,97.82
2022-10-30T02:57:48.880Z,97.82
2022-10-30T02:58:48.883Z,97.82
2022-10-30T02:59:48.869Z,97.97
2022-10-30T03:00:48.895Z,97.66
2022-10-30T03:01:48.962Z,98.07
2022-10-30T03:02:48.877Z,97.87
2022-10-30T03:03:48.810Z,97.66
2022-10-30T03:04:48.795Z,97.77
2022-10-30T03:05:48.786Z,98.18
2022-10-30T03:06:48.820Z,97.87
2022-10-30T03:07:48.782Z,97.56
2022-10-30T03:08:48.779Z,97.77
2022-10-30T03:09:48.744Z,97.81
2022-10-30T03:10:48.802Z,98.43
2022-10-30T03:11:48.743Z,97.97
2022-10-30T03:12:48.724Z,98.18
2022-10-30T03:13:48.702Z,98.48
2022-10-30T03:14:48.687Z,98.38
2022-10-30T03:15:48.674Z,98.18
2022-10-30T03:16:48.715Z,98.22
2022-10-30T03:17:48.654Z,98.32
2022-10-30T03:18:48.641Z,98.22
2022-10-30T03:19:48.633Z,98.43
2022-10-30T03:20:48.619Z,98.22
2022-10-30T03:24:09.628Z,98.18
2022-10-30T03:25:09.612Z,97.97
2022-10-30T03:26:09.659Z,98.48
2022-10-30T03:27:09.560Z,98.48
2022-10-30T03:28:09.527Z,98.58
2022-10-30T03:29:09.711Z,98.38
2022-10-30T03:30:09.513Z,98.27
2022-10-30T03:31:09.497Z,98.48
2022-10-30T03:32:09.542Z,98.58
2022-10-30T03:33:09.512Z,98.58
2022-10-30T03:34:09.467Z,98.58
2022-10-30T03:35:09.797Z,98.58
2022-10-30T03:36:09.439Z,98.58
2022-10-30T03:37:09.435Z,98.58
2022-10-30T03:38:09.438Z,99.29
2022-10-30T03:39:09.414Z,98.58
2022-10-30T03:40:09.413Z,99.09
2022-10-30T03:41:09.385Z,98.27
2022-10-30T03:42:09.381Z,99.19
2022-10-30T03:43:09.386Z,99.19
2022-10-30T03:44:09.351Z,98.99
2022-10-30T03:45:09.341Z,99.09
2022-10-30T03:46:09.331Z,99.29
2022-10-30T03:47:09.333Z,99.19
2022-10-30T03:48:09.461Z,99.40
2022-10-30T03:49:09.350Z,99.40
2022-10-30T03:50:09.327Z,99.40
2022-10-30T03:51:09.310Z,99.40
2022-10-30T03:52:09.282Z,99.19
2022-10-30T03:53:09.277Z,99.19
2022-10-30T03:54:09.270Z,99.09
2022-10-30T03:55:09.252Z,99.29
2022-10-30T03:56:09.233Z,99.19
2022-10-30T03:57:09.212Z,98.99
2022-10-30T03:58:09.194Z,99.09
2022-10-30T03:59:09.205Z,99.09
2022-10-30T04:00:09.171Z,99.19
2022-10-30T04:01:09.225Z,99.19
2022-10-30T04:02:09.475Z,98.27
2022-10-30T04:03:09.140Z,99.04
2022-10-30T04:04:09.128Z,98.18
2022-10-30T04:05:09.117Z,98.48
2022-10-30T04:06:09.140Z,98.52
2022-10-30T04:07:09.096Z,98.52
2022-10-30T04:08:09.383Z,98.63
2022-10-30T04:09:09.145Z,98.63
2022-10-30T04:10:09.061Z,98.32
2022-10-30T04:11:09.128Z,98.52
2022-10-30T04:12:09.061Z,98.68
2022-10-30T04:13:09.070Z,98.68
2022-10-30T04:14:09.037Z,98.68
2022-10-30T04:15:09.015Z,98.57
2022-10-30T04:16:09.003Z,98.57
2022-10-30T04:18:08.992Z,99.43
2022-10-30T04:19:09.026Z,98.93
2022-10-30T04:20:09.029Z,99.08
2022-10-30T04:21:08.971Z,99.43
2022-10-30T04:22:08.959Z,99.43
2022-10-30T04:23:08.932Z,99.33
2022-10-30T04:24:08.910Z,99.23
2022-10-30T04:25:08.900Z,99.23
2022-10-30T04:26:08.916Z,99.13
2022-10-30T04:27:08.880Z,99.27
2022-10-30T04:28:08.908Z,99.38
2022-10-30T04:29:08.859Z,99.27
2022-10-30T04:30:08.845Z,99.27
2022-10-30T04:31:08.840Z,99.38
2022-10-30T04:32:08.822Z,98.97
2022-10-30T04:33:08.848Z,98.97
2022-10-30T04:34:08.821Z,98.86
2022-10-30T04:35:08.789Z,99.18
2022-10-30T04:36:08.796Z,99.27
2022-10-30T04:37:08.767Z,99.58
2022-10-30T04:38:08.769Z,99.48
2022-10-30T04:39:08.768Z,99.68
2022-10-30T04:40:08.745Z,99.48
2022-10-30T04:41:08.751Z,99.48
2022-10-30T04:42:08.709Z,99.38
2022-10-30T04:43:08.697Z,99.48
2022-10-30T04:44:08.733Z,99.54
2022-10-30T04:45:14.068Z,99.79
2022-10-30T04:46:09.662Z,99.33
2022-10-30T04:47:08.695Z,99.43
2022-10-30T04:48:08.648Z,99.43
2022-10-30T04:49:08.633Z,99.43
2022-10-30T04:50:08.654Z,99.33
2022-10-30T04:51:08.616Z,99.84
2022-10-30T04:52:08.612Z,99.99
2022-10-30T04:53:08.587Z,99.84
2022-10-30T04:54:08.578Z,99.84
2022-10-30T04:55:08.565Z,99.84
2022-10-30T04:56:08.579Z,99.33
2022-10-30T04:57:08.539Z,99.33
2022-10-30T04:58:08.532Z,99.84
2022-10-30T04:59:08.541Z,99.84
2022-10-30T05:00:08.538Z,99.89
2022-10-30T05:01:08.620Z,99.99
2022-10-30T05:02:08.739Z,99.99
2022-10-30T05:03:08.479Z,99.99
2022-10-30T05:04:08.508Z,99.99
2022-10-30T05:05:08.487Z,99.99
2022-10-30T05:06:08.466Z,99.99
2022-10-30T05:07:08.427Z,99.99
2022-10-30T05:08:08.489Z,99.79
2022-10-30T05:09:08.410Z,99.68
2022-10-30T05:10:08.398Z,99.58
2022-10-30T05:11:08.407Z,99.99
2022-10-30T05:12:08.547Z,99.89
2022-10-30T05:13:08.594Z,99.79
2022-10-30T05:14:08.357Z,99.68
2022-10-30T05:15:08.340Z,99.79
2022-10-30T05:16:08.346Z,99.89
2022-10-30T05:17:08.346Z,99.99
2022-10-30T05:18:08.307Z,99.68
2022-10-30T05:19:08.293Z,99.58
2022-10-30T05:20:08.289Z,99.79
2022-10-30T05:21:08.274Z,99.99
2022-10-30T05:22:08.284Z,99.89
2022-10-30T05:23:08.249Z,99.99
2022-10-30T05:24:08.239Z,99.89
2022-10-30T05:25:08.228Z,99.93
2022-10-30T05:26:08.220Z,99.99
2022-10-30T05:27:08.229Z,99.93
2022-10-30T05:28:08.194Z,99.99
2022-10-30T05:29:08.217Z,99.99
2022-10-30T05:30:08.176Z,99.84
2022-10-30T05:31:08.160Z,99.99
2022-10-30T05:32:08.260Z,99.99
2022-10-30T05:33:08.136Z,99.93
2022-10-30T05:34:08.129Z,99.93
2022-10-30T05:35:08.119Z,99.99
2022-10-30T05:36:08.297Z,99.88
2022-10-30T05:37:08.115Z,99.93
2022-10-30T05:38:08.082Z,99.93
2022-10-30T05:39:08.073Z,99.98
2022-10-30T05:40:08.090Z,99.73
2022-10-30T05:41:08.054Z,99.78
2022-10-30T05:42:12.713Z,99.93
2022-10-30T05:43:09.112Z,99.99
2022-10-30T05:44:08.046Z,99.99
2022-10-30T05:45:08.039Z,99.73
2022-10-30T05:46:07.994Z,99.99
2022-10-30T05:47:07.987Z,99.73
2022-10-30T05:48:07.989Z,99.99
2022-10-30T05:49:07.982Z,99.99
2022-10-30T05:50:08.065Z,99.99
2022-10-30T05:51:07.942Z,99.99
2022-10-30T05:52:07.929Z,99.93
2022-10-30T05:53:07.971Z,99.99
2022-10-30T05:54:07.932Z,99.99
2022-10-30T05:55:07.894Z,99.99
2022-10-30T05:56:07.882Z,99.99
2022-10-30T05:57:07.870Z,99.93
2022-10-30T05:58:07.862Z,99.99
2022-10-30T05:59:07.895Z,99.99
2022-10-30T06:00:07.848Z,99.99
2022-10-30T06:01:07.835Z,99.98
2022-10-30T06:02:07.905Z,99.99
2022-10-30T06:03:07.881Z,99.99
2022-10-30T06:04:07.841Z,99.99
2022-10-30T06:05:07.784Z,99.99
2022-10-30T06:06:07.777Z,99.88
2022-10-30T06:07:07.760Z,99.88
2022-10-30T06:08:07.754Z,99.99
2022-10-30T06:09:07.761Z,99.88
2022-10-30T06:10:07.728Z,99.88
2022-10-30T06:11:07.738Z,99.99
2022-10-30T06:12:07.707Z,99.99
2022-10-30T06:13:07.698Z,99.99
2022-10-30T06:14:07.725Z,99.99
2022-10-30T06:15:07.698Z,99.99
2022-10-30T06:16:07.689Z,99.93
2022-10-30T06:17:07.651Z,99.99
2022-10-30T06:18:07.641Z,99.99
2022-10-30T06:19:07.659Z,99.73
2022-10-30T06:20:07.641Z,99.73
2022-10-30T06:21:07.604Z,99.99
2022-10-30T06:22:07.620Z,99.99
2022-10-30T06:23:07.587Z,99.99
2022-10-30T06:24:07.599Z,99.99
2022-10-30T06:25:07.561Z,99.99
2022-10-30T06:26:07.603Z,99.99
2022-10-30T06:27:07.550Z,99.99
2022-10-30T06:28:07.531Z,99.99
2022-10-30T06:29:07.516Z,99.99
2022-10-30T06:30:07.529Z,99.99
2022-10-30T06:31:09.992Z,99.99
2022-10-30T06:32:07.493Z,99.99
2022-10-30T06:33:07.472Z,99.99
2022-10-30T06:34:07.484Z,99.99
2022-10-30T06:35:07.477Z,99.99
2022-10-30T06:36:07.483Z,99.99
2022-10-30T06:37:07.529Z,99.99
2022-10-30T06:38:07.417Z,99.89
2022-10-30T06:39:07.407Z,99.68
2022-10-30T06:40:07.395Z,99.79
2022-10-30T06:41:07.383Z,99.99
2022-10-30T06:42:07.397Z,99.99
2022-10-30T06:43:07.361Z,99.99
2022-10-30T06:44:07.376Z,99.99
2022-10-30T06:45:07.338Z,99.74
2022-10-30T06:47:07.476Z,99.99
2022-10-30T06:48:07.310Z,99.99
2022-10-30T06:49:07.537Z,99.99
2022-10-30T06:50:07.286Z,99.99
2022-10-30T06:51:07.273Z,99.90
2022-10-30T06:52:07.277Z,99.79
2022-10-30T06:53:07.571Z,99.69
2022-10-30T06:54:07.238Z,99.69
2022-10-30T06:55:07.251Z,99.99
2022-10-30T06:56:07.216Z,99.90
2022-10-30T06:57:07.201Z,99.69
2022-10-30T06:58:07.197Z,99.99
2022-10-30T06:59:07.258Z,99.99
2022-10-30T07:00:07.211Z,99.69
2022-10-30T07:01:07.158Z,99.29
2022-10-30T07:02:10.961Z,99.39
2022-10-30T07:03:07.138Z,99.29
2022-10-30T07:04:07.126Z,99.59
2022-10-30T07:05:07.136Z,99.59
2022-10-30T07:06:07.106Z,99.79
2022-10-30T07:07:07.091Z,99.49
2022-10-30T07:08:07.102Z,99.59
2022-10-30T07:09:07.090Z,99.59
2022-10-30T07:10:07.082Z,99.49
2022-10-30T07:11:07.057Z,99.59
2022-10-30T07:12:07.292Z,99.49
2022-10-30T07:13:07.025Z,99.39
2022-10-30T07:14:07.042Z,99.39
2022-10-30T07:15:07.006Z,99.18
2022-10-30T07:16:07.028Z,99.39
2022-10-30T07:17:06.991Z,99.39
2022-10-30T07:18:06.969Z,99.49
2022-10-30T07:19:07.006Z,99.49
2022-10-30T07:20:06.973Z,99.49
2022-10-30T07:21:06.960Z,99.69
2022-10-30T07:22:06.931Z,99.69
2022-10-30T07:23:06.911Z,98.77
2022-10-30T07:24:06.922Z,99.08
2022-10-30T07:25:06.916Z,99.34
2022-10-30T07:26:06.881Z,99.04
2022-10-30T07:27:06.870Z,98.83
2022-10-30T07:28:06.860Z,99.14
2022-10-30T07:29:06.847Z,98.83
2022-10-30T07:30:06.837Z,99.04
2022-10-30T07:31:06.849Z,98.93
2022-10-30T07:32:06.813Z,99.04
2022-10-30T07:33:06.829Z,98.73
2022-10-30T07:34:06.800Z,99.24
2022-10-30T07:35:06.777Z,99.04
2022-10-30T07:36:06.790Z,99.44
2022-10-30T07:37:06.757Z,99.34
2022-10-30T07:38:06.747Z,99.24
2022-10-30T07:39:06.736Z,99.34
2022-10-30T07:40:12.279Z,99.44
2022-10-30T07:41:07.864Z,99.40
2022-10-30T07:42:06.866Z,99.40
2022-10-30T07:43:06.709Z,99.40
2022-10-30T07:44:06.682Z,99.19
2022-10-30T07:45:06.711Z,99.09
2022-10-30T07:46:06.905Z,98.99
2022-10-30T07:47:06.652Z,99.19
2022-10-30T07:48:06.643Z,98.79
2022-10-30T07:49:06.737Z,98.79
2022-10-30T07:50:06.614Z,99.19
2022-10-30T07:51:06.625Z,99.29
2022-10-30T07:52:06.598Z,99.40
2022-10-30T07:53:06.603Z,99.19
2022-10-30T07:54:06.572Z,99.40
2022-10-30T07:55:06.563Z,99.40
2022-10-30T07:56:06.567Z,98.99
2022-10-30T07:57:06.788Z,98.99
2022-10-30T07:58:06.544Z,99.19
2022-10-30T07:59:06.518Z,98.74
2022-10-30T08:00:06.508Z,99.15
2022-10-30T08:01:06.569Z,99.04
2022-10-30T08:02:06.634Z,99.15
2022-10-30T08:03:06.479Z,98.43
2022-10-30T08:04:06.482Z,98.54
2022-10-30T08:05:06.453Z,98.49
2022-10-30T08:06:06.505Z,98.79
2022-10-30T08:07:06.423Z,98.49
2022-10-30T08:08:06.414Z,98.39
2022-10-30T08:09:06.427Z,97.98
2022-10-30T08:10:06.398Z,97.88
2022-10-30T08:11:06.381Z,98.24
2022-10-30T08:12:06.391Z,98.24
2022-10-30T08:13:06.382Z,98.24
2022-10-30T08:14:06.348Z,97.93
2022-10-30T08:15:06.333Z,98.19
2022-10-30T08:16:06.332Z,97.78
2022-10-30T08:17:06.313Z,97.28
2022-10-30T08:18:06.324Z,97.53
2022-10-30T08:19:06.289Z,97.39
2022-10-30T08:20:06.304Z,97.84
2022-10-30T08:21:06.269Z,96.98
2022-10-30T08:22:06.263Z,97.39
2022-10-30T08:23:06.245Z,96.94
2022-10-30T08:24:06.320Z,96.73
2022-10-30T08:25:06.244Z,96.23
2022-10-30T08:26:06.214Z,96.23
2022-10-30T08:27:06.202Z,95.87
2022-10-30T08:28:06.208Z,96.48
2022-10-30T08:29:06.201Z,95.53
2022-10-30T08:30:06.170Z,95.73
2022-10-30T08:31:06.162Z,95.07
2022-10-30T08:32:06.145Z,95.38
2022-10-30T08:33:06.138Z,94.77
2022-10-30T08:34:06.153Z,94.77
2022-10-30T08:35:06.110Z,94.12
2022-10-30T08:36:06.100Z,93.91
2022-10-30T08:37:06.095Z,93.57
2022-10-30T08:38:06.080Z,93.16
2022-10-30T08:39:06.093Z,92.55
2022-10-30T08:40:06.056Z,92.41
2022-10-30T08:41:06.042Z,92.82
2022-10-30T08:42:06.033Z,92.51
2022-10-30T08:43:06.043Z,91.66
2022-10-30T08:44:06.027Z,91.05
2022-10-30T08:45:05.999Z,91.55
2022-10-30T08:46:05.999Z,91.41
2022-10-30T08:47:06.012Z,91.00
2022-10-30T08:48:05.968Z,90.76
2022-10-30T08:49:05.955Z,90.96
2022-10-30T08:50:05.943Z,90.66
2022-10-30T08:51:05.961Z,90.11
2022-10-30T08:52:05.922Z,89.36
2022-10-30T08:53:05.917Z,89.10
2022-10-30T08:54:05.904Z,89.06
2022-10-30T08:55:05.886Z,89.06
2022-10-30T08:56:05.916Z,88.75
2022-10-30T08:57:05.872Z,88.25
2022-10-30T08:58:05.882Z,88.61
2022-10-30T08:59:05.848Z,88.41
2022-10-30T09:00:05.855Z,87.60
2022-10-30T09:01:05.892Z,86.69
2022-10-30T09:02:06.190Z,86.35
2022-10-30T09:03:05.796Z,86.55
2022-10-30T09:04:05.787Z,86.21
2022-10-30T09:06:06.033Z,86.10
2022-10-30T09:07:07.624Z,86.30
2022-10-30T09:08:05.742Z,86.27
2022-10-30T09:09:05.760Z,85.56
2022-10-30T09:10:05.718Z,85.56
2022-10-30T09:11:05.709Z,85.96
2022-10-30T09:12:05.696Z,85.36
2022-10-30T09:13:05.690Z,84.61
2022-10-30T09:14:05.673Z,84.51
2022-10-30T09:15:05.696Z,84.11
2022-10-30T09:16:05.669Z,83.56
2022-10-30T09:17:05.642Z,83.06
2022-10-30T09:18:05.681Z,82.31
2022-10-30T09:19:05.698Z,82.51
2022-10-30T09:20:05.628Z,82.82
2022-10-30T09:21:05.664Z,82.42
2022-10-30T09:22:05.592Z,81.07
2022-10-30T09:23:05.580Z,81.27
2022-10-30T09:24:05.564Z,80.97
2022-10-30T09:25:05.576Z,81.23
2022-10-30T09:26:05.568Z,81.23
2022-10-30T09:27:05.533Z,81.33
2022-10-30T09:28:05.521Z,81.19
2022-10-30T09:29:05.509Z,80.49
2022-10-30T09:30:05.503Z,77.87
2022-10-30T09:31:05.515Z,78.67
2022-10-30T09:32:05.495Z,78.94
2022-10-30T09:33:05.878Z,78.54
2022-10-30T09:34:05.459Z,78.60
2022-10-30T09:35:05.467Z,77.80
2022-10-30T09:36:05.431Z,77.43
2022-10-30T09:37:05.450Z,78.54
2022-10-30T09:38:05.411Z,77.80
2022-10-30T09:39:05.400Z,77.09
2022-10-30T09:40:05.385Z,77.09
2022-10-30T09:41:05.376Z,76.96
2022-10-30T09:42:05.388Z,76.35
2022-10-30T09:43:05.355Z,76.65
2022-10-30T09:44:05.340Z,76.35
2022-10-30T09:45:27.849Z,77.02
2022-10-30T09:46:06.318Z,77.12
2022-10-30T09:47:05.345Z,76.72
2022-10-30T09:48:05.324Z,75.62
2022-10-30T09:49:05.384Z,73.61
2022-10-30T09:50:05.296Z,74.27
2022-10-30T09:51:05.268Z,75.18
2022-10-30T09:52:05.530Z,74.77
2022-10-30T09:53:05.243Z,75.08
2022-10-30T09:54:05.229Z,75.04
2022-10-30T09:55:05.220Z,73.33
2022-10-30T09:56:05.229Z,73.94
2022-10-30T09:57:05.203Z,74.04
2022-10-30T09:58:05.186Z,74.64
2022-10-30T09:59:05.175Z,74.71
2022-10-30T10:00:05.188Z,74.51
2022-10-30T10:01:07.337Z,74.30
2022-10-30T10:02:05.293Z,72.86
2022-10-30T10:03:05.161Z,73.57
2022-10-30T10:04:05.139Z,73.57
2022-10-30T10:05:05.126Z,72.27
2022-10-30T10:06:05.101Z,72.16
2022-10-30T10:07:05.088Z,71.43
2022-10-30T10:08:05.276Z,71.77
2022-10-30T10:09:05.070Z,71.83
2022-10-30T10:10:05.394Z,71.53
2022-10-30T10:11:05.045Z,70.83
2022-10-30T10:12:05.031Z,70.62
2022-10-30T10:13:05.442Z,71.33
2022-10-30T10:14:05.008Z,71.63
2022-10-30T10:15:05.024Z,71.43
2022-10-30T10:16:05.029Z,70.83
2022-10-30T10:17:04.990Z,71.53
2022-10-30T10:18:04.968Z,71.53
2022-10-30T10:19:04.955Z,71.19
2022-10-30T10:20:04.956Z,72.00
2022-10-30T10:21:04.964Z,72.00
2022-10-30T10:22:04.925Z,71.30
2022-10-30T10:24:34.396Z,71.80
2022-10-30T10:25:15.631Z,70.50
2022-10-30T10:26:15.604Z,69.99
2022-10-30T10:27:15.593Z,70.69
2022-10-30T10:28:15.596Z,71.59
2022-10-30T10:29:15.570Z,71.56
2022-10-30T10:30:15.559Z,71.26
2022-10-30T10:31:15.545Z,71.42
2022-10-30T10:32:15.540Z,70.92
2022-10-30T10:33:15.631Z,71.42
2022-10-30T10:34:15.519Z,71.83
2022-10-30T10:35:15.548Z,71.19
2022-10-30T10:36:15.516Z,69.99
2022-10-30T10:37:15.506Z,69.29
2022-10-30T10:38:15.488Z,69.89
2022-10-30T10:39:15.459Z,70.99
2022-10-30T10:40:15.450Z,68.52
2022-10-30T10:41:15.462Z,70.12
2022-10-30T10:42:15.434Z,69.99
2022-10-30T10:43:15.418Z,70.29
2022-10-30T10:44:15.439Z,70.99
2022-10-30T10:45:15.400Z,70.76
2022-10-30T10:46:15.384Z,69.89
2022-10-30T10:47:15.389Z,70.66
2022-10-30T10:48:15.429Z,69.46
2022-10-30T10:49:15.366Z,68.46
2022-10-30T10:50:15.341Z,69.56
2022-10-30T10:51:15.345Z,68.96
2022-10-30T10:52:15.337Z,68.96
2022-10-30T10:53:15.324Z,69.82
2022-10-30T10:54:15.298Z,68.43
2022-10-30T10:55:15.288Z,68.16
2022-10-30T10:56:15.279Z,68.56
2022-10-30T10:57:15.309Z,69.02
2022-10-30T10:58:15.274Z,67.56
2022-10-30T10:59:15.246Z,68.06
2022-10-30T11:00:15.237Z,67.59
2022-10-30T11:01:15.357Z,67.86
2022-10-30T11:02:15.349Z,68.73
2022-10-30T11:04:15.188Z,68.52
2022-10-30T11:05:15.195Z,67.93
2022-10-30T11:06:15.166Z,67.72
2022-10-30T11:07:15.172Z,68.03
2022-10-30T11:08:15.165Z,67.72
2022-10-30T11:09:15.134Z,68.03
2022-10-30T11:10:15.180Z,67.93
2022-10-30T11:11:15.110Z,68.03
2022-10-30T11:12:15.103Z,67.93
2022-10-30T11:13:15.088Z,69.02
2022-10-30T11:14:15.096Z,68.13
2022-10-30T11:15:15.135Z,67.23
2022-10-30T11:16:15.058Z,67.53
2022-10-30T11:17:15.050Z,67.72
2022-10-30T11:18:15.056Z,68.03
2022-10-30T11:19:15.047Z,67.53
2022-10-30T11:20:15.017Z,67.63
2022-10-30T11:21:15.002Z,67.63
2022-10-30T11:22:14.992Z,67.80
2022-10-30T11:23:14.999Z,68.19
2022-10-30T11:24:14.989Z,67.00
2022-10-30T11:25:14.957Z,68.19
2022-10-30T11:26:14.950Z,66.80
2022-10-30T11:27:14.959Z,67.19
2022-10-30T11:28:14.926Z,67.80
2022-10-30T11:29:14.932Z,68.10
2022-10-30T11:30:14.904Z,67.99
2022-10-30T11:31:14.895Z,68.10
2022-10-30T11:32:14.883Z,67.49
2022-10-30T11:33:14.870Z,67.86
2022-10-30T11:34:14.876Z,67.99
2022-10-30T11:35:14.852Z,68.59
2022-10-30T11:36:15.951Z,68.56
2022-10-30T11:37:14.823Z,68.16
2022-10-30T11:38:14.817Z,68.16
2022-10-30T11:39:14.845Z,67.76
2022-10-30T11:40:14.791Z,67.30
2022-10-30T11:41:14.779Z,68.16
2022-10-30T11:42:14.767Z,68.16
2022-10-30T11:43:14.755Z,67.53
2022-10-30T11:44:14.761Z,67.16
2022-10-30T11:45:14.766Z,67.36
2022-10-30T11:46:14.723Z,67.76
2022-10-30T11:47:14.709Z,68.36
2022-10-30T11:48:14.952Z,67.96
2022-10-30T11:49:14.687Z,68.73
2022-10-30T11:50:14.695Z,67.63
2022-10-30T11:51:14.774Z,67.33
2022-10-30T11:52:14.671Z,67.03
2022-10-30T11:53:14.671Z,67.63
2022-10-30T11:54:14.633Z,67.63
2022-10-30T11:55:14.684Z,67.63
2022-10-30T11:56:14.608Z,67.23
2022-10-30T11:57:14.622Z,67.43
2022-10-30T11:58:14.609Z,65.87
2022-10-30T11:59:14.571Z,66.77
2022-10-30T12:00:14.566Z,67.36
2022-10-30T12:01:14.565Z,67.33
2022-10-30T12:02:14.711Z,67.33
2022-10-30T12:03:14.556Z,68.13
2022-10-30T12:04:14.523Z,68.03
2022-10-30T12:05:14.528Z,67.53
2022-10-30T12:06:14.499Z,67.93
2022-10-30T12:07:14.508Z,67.53
2022-10-30T12:08:14.478Z,65.44
2022-10-30T12:11:34.941Z,65.53
2022-10-30T12:12:34.935Z,64.54
2022-10-30T12:13:34.884Z,65.34
2022-10-30T12:14:34.892Z,65.53
2022-10-30T12:15:34.865Z,66.43
2022-10-30T12:16:34.872Z,67.33
2022-10-30T12:17:34.832Z,65.64
2022-10-30T12:18:34.948Z,65.64
2022-10-30T12:19:34.810Z,65.34
2022-10-30T12:20:34.823Z,65.64
2022-10-30T12:21:34.789Z,65.64
2022-10-30T12:22:34.778Z,65.64
2022-10-30T12:23:34.793Z,65.53
2022-10-30T12:24:34.757Z,65.94
2022-10-30T12:25:34.743Z,67.23
2022-10-30T12:26:34.736Z,66.33
2022-10-30T12:27:34.762Z,66.93
2022-10-30T12:28:34.716Z,65.47
2022-10-30T12:30:02.684Z,65.87
2022-10-30T12:30:35.698Z,65.37
2022-10-30T12:31:34.679Z,65.97
2022-10-30T12:32:39.359Z,66.86
2022-10-30T12:33:34.682Z,67.16
2022-10-30T12:34:34.649Z,67.26
2022-10-30T12:35:34.633Z,67.36
2022-10-30T12:36:34.646Z,65.37
2022-10-30T12:37:34.609Z,65.56
2022-10-30T12:38:34.619Z,65.47
2022-10-30T12:39:34.612Z,65.53
2022-10-30T12:40:34.584Z,65.44
2022-10-30T12:41:34.566Z,65.64
2022-10-30T12:42:34.556Z,67.03
2022-10-30T12:43:34.582Z,65.44
2022-10-30T12:44:34.554Z,65.83
2022-10-30T12:45:34.542Z,65.73
2022-10-30T12:46:34.526Z,66.83
2022-10-30T12:47:34.510Z,67.40
2022-10-30T12:48:34.487Z,67.03
2022-10-30T12:49:34.482Z,67.50
2022-10-30T12:50:34.493Z,67.73
2022-10-30T12:51:34.454Z,66.43
2022-10-30T12:52:34.445Z,66.90
2022-10-30T12:53:34.429Z,66.00
2022-10-30T12:54:34.442Z,65.31
2022-10-30T12:55:34.405Z,67.20
2022-10-30T12:56:34.397Z,66.40
2022-10-30T12:57:34.384Z,65.70
2022-10-30T12:58:34.402Z,65.70
2022-10-30T12:59:34.380Z,66.00
2022-10-30T13:00:34.351Z,67.60
2022-10-30T13:01:34.479Z,65.61
2022-10-30T13:02:34.388Z,65.50
2022-10-30T13:03:34.341Z,65.91
2022-10-30T13:04:34.333Z,65.34